createdAt,value
2019-04-05T00:00:12.414Z,10.27
2019-04-05T00:05:08.780Z,10.13
2019-04-05T00:10:05.225Z,9.77
2019-04-05T00:15:14.586Z,9.97
2019-04-05T00:20:00.018Z,9.20
2019-04-05T00:24:56.185Z,9.10
2019-04-05T00:29:52.245Z,9.87
2019-04-05T00:34:48.401Z,9.13
2019-04-05T00:39:44.764Z,8.73
2019-04-05T00:44:41.911Z,9.80
2019-04-05T00:49:38.013Z,8.83
2019-04-05T00:54:34.101Z,9.23
2019-04-05T00:59:30.299Z,9.23
2019-04-05T01:04:26.382Z,9.77
2019-04-05T01:09:22.738Z,8.43
2019-04-05T01:14:19.481Z,8.90
2019-04-05T01:19:17.175Z,8.47
2019-04-05T01:24:14.409Z,8.77
2019-04-05T01:29:10.736Z,8.30
2019-04-05T01:34:06.776Z,8.50
2019-04-05T01:39:03.085Z,9.43
2019-04-05T01:43:59.234Z,9.90
2019-04-05T01:48:55.264Z,9.73
2019-04-05T01:53:51.452Z,9.17
2019-04-05T01:58:47.678Z,9.07
2019-04-05T02:03:43.749Z,8.50
2019-04-05T02:08:40.226Z,9.47
2019-04-05T02:13:36.386Z,9.70
2019-04-05T02:18:32.601Z,8.80
2019-04-05T02:23:37.086Z,9.43
2019-04-05T02:28:33.137Z,9.33
2019-04-05T02:33:29.365Z,9.77
2019-04-05T02:38:25.395Z,9.23
2019-04-05T02:43:24.991Z,9.07
2019-04-05T02:48:22.643Z,9.57
2019-04-05T02:53:22.221Z,9.20
2019-04-05T02:58:19.139Z,9.83
2019-04-05T03:03:17.215Z,10.80
2019-04-05T03:08:14.087Z,10.73
2019-04-05T03:13:10.422Z,10.77
2019-04-05T03:18:07.063Z,10.53
2019-04-05T03:23:03.589Z,10.37
2019-04-05T03:28:00.306Z,10.63
2019-04-05T03:32:56.559Z,10.80
2019-04-05T03:37:52.840Z,11.57
2019-04-05T03:42:49.324Z,11.10
2019-04-05T03:47:45.499Z,11.77
2019-04-05T03:52:41.936Z,11.50
2019-04-05T03:57:38.829Z,12.20
2019-04-05T04:02:34.965Z,12.83
2019-04-05T04:07:31.350Z,13.37
2019-04-05T04:12:30.664Z,11.90
2019-04-05T04:17:30.726Z,11.60
2019-04-05T04:22:31.795Z,13.33
2019-04-05T04:27:30.264Z,12.33
2019-04-05T04:32:27.119Z,12.47
2019-04-05T04:37:34.993Z,11.90
2019-04-05T04:42:32.100Z,12.63
2019-04-05T04:47:30.099Z,12.23
2019-04-05T04:52:27.024Z,12.00
2019-04-05T04:57:23.671Z,13.17
2019-04-05T05:02:20.508Z,11.90
2019-04-05T05:14:13.018Z,12.57
2019-04-05T05:19:05.284Z,11.97
2019-04-05T05:24:03.318Z,12.77
2019-04-05T05:29:02.406Z,12.87
2019-04-05T05:33:59.278Z,13.20
2019-04-05T06:11:29.415Z,10.50
2019-04-05T06:16:26.214Z,10.00
2019-04-05T06:21:28.663Z,9.30
2019-04-05T06:26:29.622Z,8.83
2019-04-05T06:31:40.904Z,8.63
2019-04-05T06:36:55.055Z,8.73
2019-04-05T06:41:50.957Z,8.33
2019-04-05T06:46:49.119Z,8.03
2019-04-05T06:52:09.210Z,7.87
2019-04-05T06:57:17.529Z,6.87
2019-04-05T07:02:23.661Z,4.87
2019-04-05T07:07:20.968Z,15.00
2019-04-05T07:12:20.444Z,7.40
2019-04-05T07:17:15.689Z,7.40
2019-04-05T07:22:11.621Z,5.63
2019-04-05T07:27:10.807Z,5.50
2019-04-05T07:32:17.808Z,5.30
2019-04-05T07:37:20.604Z,7.60
2019-04-05T07:42:16.791Z,6.57
2019-04-05T07:47:13.045Z,6.33
2019-04-05T07:52:08.873Z,7.93
2019-04-05T07:57:04.750Z,6.90
2019-04-05T08:02:00.673Z,7.83
2019-04-05T08:07:00.384Z,7.87
2019-04-05T08:12:04.786Z,7.93
2019-04-05T08:17:00.869Z,7.20
2019-04-05T08:21:59.242Z,8.67
2019-04-05T08:26:55.195Z,7.30
2019-04-05T08:31:51.111Z,6.50
2019-04-05T08:36:46.969Z,7.20
2019-04-05T08:41:44.830Z,6.53
2019-04-05T08:46:45.871Z,7.30
2019-04-05T08:51:52.222Z,6.17
2019-04-05T08:57:02.398Z,8.57
2019-04-05T09:02:13.673Z,11.53
2019-04-05T09:07:23.170Z,7.67
2019-04-05T09:12:40.171Z,8.63
2019-04-05T09:17:53.422Z,9.07
2019-04-05T09:23:10.819Z,6.73
2019-04-05T09:28:22.594Z,7.33
2019-04-05T09:33:40.285Z,6.77
2019-04-05T09:39:00.365Z,6.07
2019-04-05T09:44:13.289Z,7.23
2019-04-05T09:55:29.428Z,6.37
2019-04-05T10:00:35.809Z,7.10
2019-04-05T10:05:39.142Z,7.13
2019-04-05T10:10:49.587Z,6.50
2019-04-05T10:15:36.618Z,6.20
2019-04-05T10:20:45.523Z,7.90
2019-04-05T10:25:47.245Z,8.33
2019-04-05T10:31:00.357Z,7.30
2019-04-05T10:36:16.581Z,7.17
2019-04-05T10:41:35.534Z,6.63
2019-04-05T15:20:50.031Z,3.93
2019-04-05T15:48:32.692Z,3.80
2019-04-05T15:54:33.334Z,4.97
2019-04-05T16:05:32.138Z,3.67
2019-04-05T16:10:37.730Z,3.83
2019-04-05T16:16:33.594Z,4.10
2019-04-05T16:21:38.943Z,4.03
2019-04-05T16:26:41.884Z,3.37
2019-04-05T16:31:50.889Z,2.87
2019-04-05T16:36:58.093Z,3.40
2019-04-05T16:41:54.034Z,3.20
2019-04-05T16:46:50.098Z,3.60
2019-04-05T16:51:46.361Z,3.27
2019-04-05T16:56:44.898Z,3.33
2019-04-05T17:14:50.022Z,3.33
2019-04-05T17:20:24.158Z,3.37
2019-04-05T17:25:31.902Z,3.47
2019-04-05T17:30:41.536Z,2.93
2019-04-05T17:35:43.850Z,2.63
2019-04-05T17:48:43.113Z,3.63
2019-04-05T17:54:17.464Z,4.90
2019-04-05T18:00:10.244Z,4.00
2019-04-05T18:11:04.708Z,3.63
2019-04-05T18:16:46.809Z,3.40
2019-04-05T18:22:19.619Z,3.90
2019-04-05T18:28:39.909Z,3.47
2019-04-05T18:45:46.403Z,4.27
2019-04-05T18:50:56.031Z,3.53
2019-04-05T18:55:57.372Z,4.00
2019-04-05T19:00:54.745Z,3.43
2019-04-05T19:05:53.088Z,3.63
2019-04-05T19:10:48.926Z,3.90
2019-04-05T19:15:45.949Z,3.87
2019-04-05T19:20:42.242Z,3.80
2019-04-05T19:25:42.043Z,3.67
2019-04-05T19:50:42.241Z,4.60
2019-04-05T19:55:39.613Z,4.33
2019-04-05T20:00:35.573Z,4.43
2019-04-05T20:05:31.745Z,3.83
2019-04-05T20:10:27.979Z,4.17
2019-04-05T20:15:25.347Z,4.57
2019-04-05T20:20:27.623Z,4.40
2019-04-05T20:25:24.935Z,4.93
2019-04-05T20:30:21.989Z,4.60
2019-04-05T20:35:17.823Z,4.67
2019-04-05T20:40:14.281Z,4.83
2019-04-05T20:45:12.676Z,3.93
2019-04-05T20:50:11.020Z,4.03
2019-04-05T20:55:13.241Z,4.73
2019-04-05T21:00:10.664Z,4.43
2019-04-05T21:05:07.298Z,4.13
2019-04-05T21:10:03.357Z,4.53
2019-04-05T21:14:59.436Z,4.00
2019-04-05T21:20:07.083Z,4.60
2019-04-05T21:25:03.048Z,4.40
2019-04-05T21:29:59.002Z,4.80
2019-04-05T21:34:54.999Z,4.90
2019-04-05T21:39:51.014Z,4.73
2019-04-05T21:44:47.260Z,4.57
2019-04-05T21:49:43.449Z,4.90
2019-04-05T21:54:53.355Z,4.93
2019-04-05T21:59:49.192Z,5.00
2019-04-05T22:04:45.173Z,4.87
2019-04-05T22:09:44.041Z,5.03
2019-04-05T22:14:40.315Z,5.23
2019-04-05T22:19:36.303Z,5.43
2019-04-05T22:24:32.525Z,4.97
2019-04-05T22:29:28.533Z,4.60
2019-04-05T22:34:24.481Z,5.03
2019-04-05T22:39:21.510Z,4.53
2019-04-05T22:44:19.389Z,5.00
2019-04-05T22:49:15.252Z,5.37
2019-04-05T22:54:11.295Z,5.30
2019-04-05T22:59:07.183Z,5.97
2019-04-05T23:04:06.220Z,5.43
2019-04-05T23:09:11.331Z,5.03
2019-04-05T23:14:16.792Z,5.43
2019-04-05T23:19:28.654Z,5.00
2019-04-05T23:24:37.653Z,4.63
2019-04-05T23:30:00.984Z,5.00
2019-04-05T23:40:38.650Z,5.50
2019-04-05T23:45:34.579Z,5.40
2019-04-05T23:50:30.811Z,5.60
2019-04-05T23:55:33.149Z,6.17
